Terminal Aerodrome Forecast
Issued by NWS

Home | Current Version | Previous Version | Text Only | Print | Product List | Glossary On
Versions: 1 2 3 4 5 6 7 8 9 10 11 12 13 14 15 16 17 18 19 20 21 22 23 24 25
000
FTUS46 KLOX 292340
TAFLAX
TAF
KLAX 292340Z 3000/3106 26015KT P6SM SKC
     FM300400 25008KT 5SM BR SKC
     FM300900 VRB03KT 3SM BR BKN005
     FM301100 14006KT 5SM BR OVC007
     FM301700 23005KT 6SM HZ SCT010
     FM302000 25012KT P6SM SKC
     FM310400 26007KT P6SM SKC=

USA.gov is the U.S. government's official web portal to all federal, state and local government web resources and services.